createdAt,value
2017-03-08T00:00:17.470Z,84.80
2017-03-08T00:01:16.510Z,84.70
2017-03-08T00:02:15.096Z,84.70
2017-03-08T00:03:13.644Z,84.80
2017-03-08T00:04:12.580Z,84.80
2017-03-08T00:05:11.190Z,84.90
2017-03-08T00:06:10.328Z,84.90
2017-03-08T00:07:08.971Z,85.00
2017-03-08T00:08:07.661Z,85.10
2017-03-08T00:09:07.197Z,85.00
2017-03-08T00:10:05.874Z,85.00
2017-03-08T00:11:04.846Z,85.00
2017-03-08T00:12:04.209Z,85.10
2017-03-08T00:13:02.845Z,85.10
2017-03-08T00:14:01.412Z,85.20
2017-03-08T00:14:59.994Z,85.30
2017-03-08T00:15:58.580Z,85.30
2017-03-08T00:16:57.203Z,85.40
2017-03-08T00:17:56.560Z,85.40
2017-03-08T00:18:55.142Z,85.70
2017-03-08T00:19:53.726Z,85.90
2017-03-08T00:20:52.398Z,86.00
2017-03-08T00:21:51.230Z,86.20
2017-03-08T00:22:49.827Z,86.30
2017-03-08T00:23:48.859Z,86.40
2017-03-08T00:24:48.130Z,86.50
2017-03-08T00:25:46.710Z,86.50
2017-03-08T00:26:45.355Z,86.60
2017-03-08T00:27:44.016Z,86.70
2017-03-08T00:28:42.681Z,86.60
2017-03-08T00:29:41.599Z,86.70
2017-03-08T00:30:40.192Z,86.80
2017-03-08T00:31:38.788Z,86.70
2017-03-08T00:32:37.786Z,86.60
2017-03-08T00:33:36.341Z,86.70
2017-03-08T00:34:35.325Z,86.70
2017-03-08T00:35:34.677Z,86.70
2017-03-08T00:36:33.371Z,86.70
2017-03-08T00:37:32.022Z,86.50
2017-03-08T00:38:30.669Z,86.50
2017-03-08T00:39:29.257Z,86.60
2017-03-08T00:40:27.916Z,86.80
2017-03-08T00:41:26.782Z,86.80
2017-03-08T00:42:25.353Z,86.60
2017-03-08T00:43:23.926Z,87.00
2017-03-08T00:44:22.542Z,87.10
2017-03-08T00:45:21.282Z,87.10
2017-03-08T00:46:19.889Z,86.90
2017-03-08T00:47:18.793Z,86.80
2017-03-08T00:48:17.417Z,86.70
2017-03-08T00:49:16.080Z,86.80
2017-03-08T00:50:14.656Z,86.80
2017-03-08T00:51:13.257Z,86.90
2017-03-08T00:52:11.861Z,87.00
2017-03-08T00:53:10.768Z,87.10
2017-03-08T00:54:09.354Z,87.00
2017-03-08T00:55:07.972Z,86.80
2017-03-08T00:56:06.633Z,86.70
2017-03-08T00:57:05.177Z,86.80
2017-03-08T00:58:03.687Z,86.90
2017-03-08T00:59:02.565Z,87.40
2017-03-08T01:00:01.105Z,87.50
2017-03-08T01:00:59.627Z,87.70
2017-03-08T01:01:58.206Z,87.80
2017-03-08T01:02:56.784Z,87.80
2017-03-08T01:03:55.325Z,87.80
2017-03-08T01:04:54.209Z,87.70
2017-03-08T01:05:52.827Z,87.70
2017-03-08T01:06:52.911Z,87.90
2017-03-08T01:07:51.496Z,87.90
2017-03-08T01:08:50.456Z,87.70
2017-03-08T01:09:48.982Z,87.70
2017-03-08T01:10:47.828Z,87.80
2017-03-08T01:11:46.397Z,87.90
2017-03-08T01:12:44.957Z,87.80
2017-03-08T01:13:43.511Z,87.90
2017-03-08T01:14:42.066Z,87.80
2017-03-08T01:15:40.582Z,87.90
2017-03-08T01:16:39.379Z,88.10
2017-03-08T01:17:39.105Z,87.90
2017-03-08T01:18:37.683Z,87.90
2017-03-08T01:19:36.196Z,87.70
2017-03-08T01:20:35.069Z,87.70
2017-03-08T01:21:34.006Z,87.60
2017-03-08T01:22:33.087Z,87.70
2017-03-08T01:23:31.606Z,87.60
2017-03-08T01:24:30.133Z,87.70
2017-03-08T01:25:28.631Z,87.70
2017-03-08T01:26:28.394Z,87.70
2017-03-08T01:27:26.924Z,87.70
2017-03-08T01:28:25.801Z,87.70
2017-03-08T01:29:24.357Z,87.90
2017-03-08T01:30:22.913Z,87.90
2017-03-08T01:31:21.421Z,87.70
2017-03-08T01:32:19.954Z,87.50
2017-03-08T01:33:18.467Z,87.50
2017-03-08T01:34:17.329Z,87.80
2017-03-08T01:35:15.926Z,87.80
2017-03-08T01:36:14.460Z,87.60
2017-03-08T01:37:12.999Z,87.60
2017-03-08T01:38:11.541Z,87.50
2017-03-08T01:39:10.086Z,87.90
2017-03-08T01:40:08.981Z,88.20
2017-03-08T01:41:07.512Z,88.00
2017-03-08T01:42:06.048Z,88.20
2017-03-08T01:43:04.624Z,88.30
2017-03-08T01:44:03.156Z,88.30
2017-03-08T01:45:01.689Z,88.20
2017-03-08T01:46:00.481Z,88.30
2017-03-08T01:46:59.016Z,88.20
2017-03-08T01:47:57.569Z,88.10
2017-03-08T01:48:56.129Z,88.20
2017-03-08T01:49:54.633Z,88.20
2017-03-08T01:50:53.226Z,88.20
2017-03-08T01:51:52.474Z,88.10
2017-03-08T01:52:51.006Z,88.10
2017-03-08T01:53:49.490Z,88.30
2017-03-08T01:54:48.021Z,88.70
2017-03-08T01:55:46.540Z,88.90
2017-03-08T01:56:45.076Z,88.90
2017-03-08T01:57:44.359Z,88.60
2017-03-08T01:58:42.896Z,88.60
2017-03-08T01:59:41.428Z,88.50
2017-03-08T02:00:40.437Z,88.60
2017-03-08T02:01:38.973Z,88.60
2017-03-08T02:02:37.612Z,88.70
2017-03-08T02:03:36.480Z,88.80
2017-03-08T02:04:35.044Z,88.80
2017-03-08T02:05:33.633Z,88.90
2017-03-08T02:06:32.153Z,89.00
2017-03-08T02:07:30.668Z,88.80
2017-03-08T02:08:29.197Z,88.60
2017-03-08T02:09:28.019Z,88.70
2017-03-08T02:10:26.528Z,88.90
2017-03-08T02:11:25.060Z,88.70
2017-03-08T02:12:23.638Z,88.80
2017-03-08T02:13:22.172Z,88.80
2017-03-08T02:14:20.669Z,88.50
2017-03-08T02:15:19.563Z,88.70
2017-03-08T02:16:18.098Z,88.80
2017-03-08T02:17:16.637Z,89.10
2017-03-08T02:18:15.126Z,89.00
2017-03-08T02:19:13.680Z,88.60
2017-03-08T02:20:12.271Z,88.60
2017-03-08T02:21:11.104Z,88.50
2017-03-08T02:22:09.659Z,88.60
2017-03-08T02:23:08.168Z,88.60
2017-03-08T02:24:06.685Z,88.60
2017-03-08T02:25:05.218Z,88.50
2017-03-08T02:26:03.836Z,88.50
2017-03-08T02:27:02.836Z,88.40
2017-03-08T02:28:01.378Z,88.90
2017-03-08T02:28:59.962Z,89.20
2017-03-08T02:29:58.477Z,89.20
2017-03-08T02:30:57.041Z,89.00
2017-03-08T02:31:55.600Z,88.70
2017-03-08T02:32:54.484Z,88.90
2017-03-08T02:33:53.046Z,88.90
2017-03-08T02:34:51.573Z,88.80
2017-03-08T02:35:50.122Z,88.60
2017-03-08T02:36:48.682Z,88.90
2017-03-08T02:37:47.749Z,89.20
2017-03-08T02:38:46.644Z,89.60
2017-03-08T02:39:45.220Z,89.50
2017-03-08T02:40:43.891Z,89.40
2017-03-08T02:41:42.381Z,89.40
2017-03-08T02:42:40.946Z,89.40
2017-03-08T02:43:39.448Z,89.30
2017-03-08T02:44:38.696Z,89.20
2017-03-08T02:45:37.252Z,89.20
2017-03-08T02:46:35.790Z,89.20
2017-03-08T02:47:34.296Z,89.30
2017-03-08T02:48:32.862Z,89.40
2017-03-08T02:49:31.389Z,89.50
2017-03-08T02:50:30.235Z,89.50
2017-03-08T02:51:28.814Z,89.30
2017-03-08T02:52:27.358Z,89.30
2017-03-08T02:53:25.889Z,89.20
2017-03-08T02:54:24.446Z,89.00
2017-03-08T02:55:23.040Z,89.10
2017-03-08T02:56:22.309Z,89.10
2017-03-08T02:57:20.853Z,89.10
2017-03-08T02:58:19.450Z,89.30
2017-03-08T02:59:17.980Z,89.30
2017-03-08T03:00:16.541Z,89.20
2017-03-08T03:01:15.049Z,89.10
2017-03-08T03:02:13.925Z,89.00
2017-03-08T03:03:12.449Z,88.90
2017-03-08T03:04:11.387Z,88.60
2017-03-08T03:05:09.949Z,88.60
2017-03-08T03:06:08.515Z,88.50
2017-03-08T03:07:07.041Z,88.60
2017-03-08T03:08:06.103Z,88.70
2017-03-08T03:09:05.458Z,88.60
2017-03-08T03:10:04.028Z,88.40
2017-03-08T03:11:02.568Z,88.30
2017-03-08T03:12:01.557Z,88.40
2017-03-08T03:13:00.094Z,88.40
2017-03-08T03:13:58.957Z,88.40
2017-03-08T03:14:57.499Z,88.30
2017-03-08T03:15:56.074Z,88.20
2017-03-08T03:16:54.587Z,88.10
2017-03-08T03:17:53.112Z,88.30
2017-03-08T03:18:51.690Z,88.50
2017-03-08T03:19:50.598Z,88.40
2017-03-08T03:20:49.111Z,88.30
2017-03-08T03:21:47.646Z,88.40
2017-03-08T03:22:46.226Z,88.40
2017-03-08T03:23:44.729Z,88.50
2017-03-08T03:24:43.310Z,88.60
2017-03-08T03:25:42.237Z,88.60
2017-03-08T03:26:40.784Z,88.70
2017-03-08T03:27:39.274Z,88.60
2017-03-08T03:28:37.808Z,88.60
2017-03-08T03:29:36.708Z,88.40
2017-03-08T03:30:35.246Z,88.50
2017-03-08T03:31:34.504Z,88.40
2017-03-08T03:32:33.037Z,88.40
2017-03-08T03:33:31.606Z,88.40
2017-03-08T03:34:30.158Z,88.40
2017-03-08T03:35:29.064Z,88.40
2017-03-08T03:36:27.594Z,88.40
2017-03-08T03:37:26.446Z,88.30
2017-03-08T03:38:24.972Z,88.30
2017-03-08T03:39:23.929Z,88.20
2017-03-08T03:40:22.446Z,88.20
2017-03-08T03:41:20.992Z,88.10
2017-03-08T03:42:19.944Z,88.00
2017-03-08T03:43:18.816Z,88.00
2017-03-08T03:44:17.344Z,87.90
2017-03-08T03:45:15.932Z,87.90
2017-03-08T03:46:14.453Z,87.90
2017-03-08T03:47:13.086Z,87.90
2017-03-08T03:48:11.620Z,88.00
2017-03-08T03:49:10.415Z,88.00
2017-03-08T03:50:08.974Z,87.90
2017-03-08T03:51:09.120Z,88.30
2017-03-08T03:52:08.166Z,88.30
2017-03-08T03:53:07.094Z,88.20
2017-03-08T03:54:05.647Z,88.20
2017-03-08T03:55:04.546Z,88.10
2017-03-08T03:56:03.089Z,87.70
2017-03-08T03:57:01.576Z,87.60
2017-03-08T03:58:00.116Z,87.90
2017-03-08T03:58:58.602Z,88.00
2017-03-08T03:59:57.154Z,88.10
2017-03-08T04:00:55.994Z,87.90
2017-03-08T04:01:54.590Z,87.90
2017-03-08T04:02:53.102Z,87.90
2017-03-08T04:03:51.756Z,87.90
2017-03-08T04:04:50.658Z,87.90
2017-03-08T04:05:49.202Z,87.90
2017-03-08T04:06:48.045Z,88.00
2017-03-08T04:07:46.849Z,88.10
2017-03-08T04:08:45.784Z,87.90
2017-03-08T04:09:44.317Z,87.90
2017-03-08T04:10:42.852Z,88.00
2017-03-08T04:11:41.366Z,88.10
2017-03-08T04:12:40.613Z,88.10
2017-03-08T04:13:39.149Z,88.10
2017-03-08T04:14:37.665Z,87.80
2017-03-08T04:15:36.196Z,87.70
2017-03-08T04:16:34.722Z,87.60
2017-03-08T04:17:33.290Z,87.70
2017-03-08T04:18:32.089Z,87.70
2017-03-08T04:19:30.626Z,87.50
2017-03-08T04:20:29.197Z,87.40
2017-03-08T04:21:27.704Z,87.50
2017-03-08T04:22:26.635Z,88.00
2017-03-08T04:23:25.157Z,88.00
2017-03-08T04:24:24.400Z,88.10
2017-03-08T04:25:22.909Z,88.10
2017-03-08T04:26:22.978Z,88.20
2017-03-08T04:27:21.491Z,88.00
2017-03-08T04:28:20.001Z,88.10
2017-03-08T04:29:18.518Z,88.00
2017-03-08T04:30:17.379Z,88.10
2017-03-08T04:31:15.900Z,87.90
2017-03-08T04:32:14.465Z,88.00
2017-03-08T04:33:13.395Z,87.90
2017-03-08T04:34:11.914Z,87.90
2017-03-08T04:35:10.818Z,88.30
2017-03-08T04:36:09.634Z,88.30
2017-03-08T04:37:08.201Z,88.30
2017-03-08T04:38:06.781Z,88.30
2017-03-08T04:39:05.768Z,88.50
2017-03-08T04:40:04.325Z,88.40
2017-03-08T04:41:02.844Z,88.40
2017-03-08T04:42:01.697Z,88.20
2017-03-08T04:43:02.441Z,88.30
2017-03-08T04:44:01.361Z,88.10
2017-03-08T04:44:59.863Z,88.10
2017-03-08T04:45:58.389Z,88.00
2017-03-08T04:46:56.908Z,87.90
2017-03-08T04:47:55.788Z,87.80
2017-03-08T04:48:54.321Z,87.70
2017-03-08T04:49:52.819Z,87.70
2017-03-08T04:50:51.365Z,87.70
2017-03-08T04:51:49.910Z,87.90
2017-03-08T04:52:48.628Z,88.00
2017-03-08T04:53:47.525Z,88.10
2017-03-08T04:54:46.036Z,88.00
2017-03-08T04:55:44.651Z,88.20
2017-03-08T04:56:43.165Z,88.30
2017-03-08T04:57:41.693Z,88.30
2017-03-08T04:58:40.324Z,88.50
2017-03-08T04:59:41.280Z,88.70
2017-03-08T05:00:40.223Z,88.60
2017-03-08T05:01:38.789Z,88.60
2017-03-08T05:02:37.323Z,88.60
2017-03-08T05:03:35.858Z,88.60
2017-03-08T05:04:34.818Z,88.60
2017-03-08T05:05:33.686Z,88.60
2017-03-08T05:06:32.232Z,88.90
2017-03-08T05:07:30.793Z,89.10
2017-03-08T05:08:29.299Z,89.40
2017-03-08T05:09:27.864Z,89.50
2017-03-08T05:10:26.488Z,89.40
2017-03-08T05:11:25.324Z,89.40
2017-03-08T05:12:23.837Z,89.40
2017-03-08T05:13:22.800Z,89.40
2017-03-08T05:14:21.363Z,89.40
2017-03-08T05:15:19.928Z,89.40
2017-03-08T05:16:18.752Z,89.50
2017-03-08T05:17:17.587Z,89.60
2017-03-08T05:18:16.099Z,89.60
2017-03-08T05:19:15.023Z,89.60
2017-03-08T05:20:13.600Z,89.60
2017-03-08T05:21:12.133Z,89.60
2017-03-08T05:22:10.657Z,89.60
2017-03-08T05:23:09.544Z,89.60
2017-03-08T05:24:08.070Z,89.60
2017-03-08T05:25:06.583Z,89.70
2017-03-08T05:26:05.102Z,89.50
2017-03-08T05:27:03.616Z,89.60
2017-03-08T05:28:02.146Z,89.60
2017-03-08T05:29:01.083Z,89.50
2017-03-08T05:29:59.615Z,89.50
2017-03-08T05:30:58.122Z,89.30
2017-03-08T05:31:56.629Z,89.20
2017-03-08T05:32:55.182Z,89.30
2017-03-08T05:33:53.710Z,89.20
2017-03-08T05:34:52.654Z,89.20
2017-03-08T05:35:51.226Z,89.10
2017-03-08T05:36:51.058Z,89.10
2017-03-08T05:37:49.576Z,89.10
2017-03-08T05:38:48.327Z,89.10
2017-03-08T05:39:46.898Z,89.00
2017-03-08T05:40:45.801Z,88.90
2017-03-08T05:41:44.299Z,89.00
2017-03-08T05:42:42.876Z,89.00
2017-03-08T05:43:41.464Z,89.20
2017-03-08T05:44:39.990Z,89.10
2017-03-08T05:45:38.489Z,89.00
2017-03-08T05:46:37.266Z,89.10
2017-03-08T05:47:35.797Z,89.10
2017-03-08T05:48:34.320Z,89.20
2017-03-08T05:49:32.823Z,89.30
2017-03-08T05:50:31.347Z,89.50
2017-03-08T05:51:29.869Z,89.30
2017-03-08T05:52:28.779Z,89.30
2017-03-08T05:53:27.357Z,89.20
2017-03-08T05:54:25.885Z,89.20
2017-03-08T05:55:24.441Z,89.20
2017-03-08T05:56:22.985Z,89.20
2017-03-08T05:57:21.502Z,89.10
2017-03-08T05:58:20.421Z,89.20
2017-03-08T05:59:18.973Z,89.30
2017-03-08T06:00:17.487Z,89.20
2017-03-08T06:01:16.180Z,89.20
2017-03-08T06:02:15.147Z,89.40
2017-03-08T06:03:13.685Z,89.40
2017-03-08T06:04:12.572Z,89.50
2017-03-08T06:05:11.124Z,89.40
2017-03-08T06:06:09.657Z,89.40
2017-03-08T06:07:08.162Z,89.50
2017-03-08T06:08:06.695Z,89.50
2017-03-08T06:09:05.861Z,89.50
2017-03-08T06:10:04.726Z,89.40
2017-03-08T06:11:03.264Z,89.50
2017-03-08T06:12:01.766Z,89.40
2017-03-08T06:13:00.323Z,89.40
2017-03-08T06:13:58.850Z,89.40
2017-03-08T06:14:57.416Z,89.50
2017-03-08T06:15:56.271Z,89.50
2017-03-08T06:16:54.946Z,89.50
2017-03-08T06:17:53.494Z,89.40
2017-03-08T06:18:51.987Z,89.40
2017-03-08T06:19:50.491Z,89.30
2017-03-08T06:20:49.031Z,89.30
2017-03-08T06:21:47.854Z,89.30
2017-03-08T06:22:46.831Z,89.30
2017-03-08T06:23:45.781Z,89.40
2017-03-08T06:24:44.364Z,89.40
2017-03-08T06:25:42.882Z,89.40
2017-03-08T06:26:41.390Z,89.50
2017-03-08T06:27:40.166Z,89.50
2017-03-08T06:28:38.695Z,89.30
2017-03-08T06:29:37.217Z,89.30
2017-03-08T06:30:35.802Z,89.40
2017-03-08T06:31:34.336Z,89.30
2017-03-08T06:32:32.898Z,89.20
2017-03-08T06:33:31.739Z,89.20
2017-03-08T06:34:30.284Z,89.20
2017-03-08T06:35:28.777Z,89.20
2017-03-08T06:36:27.323Z,89.30
2017-03-08T06:37:25.899Z,89.30
2017-03-08T06:38:24.430Z,89.30
2017-03-08T06:39:23.758Z,89.20
2017-03-08T06:40:22.360Z,89.20
2017-03-08T06:41:20.898Z,89.10
2017-03-08T06:42:19.434Z,88.90
2017-03-08T06:43:17.985Z,88.70
2017-03-08T06:44:16.484Z,88.90
2017-03-08T06:45:15.332Z,88.90
2017-03-08T06:46:13.854Z,88.80
2017-03-08T06:47:12.383Z,88.80
2017-03-08T06:48:10.932Z,88.80
2017-03-08T06:49:09.479Z,88.90
2017-03-08T06:50:08.170Z,89.00
2017-03-08T06:51:07.769Z,88.80
2017-03-08T06:52:06.294Z,89.00
2017-03-08T06:53:05.843Z,88.70
2017-03-08T06:54:04.408Z,88.40
2017-03-08T06:55:03.088Z,88.30
2017-03-08T06:56:01.678Z,88.20
2017-03-08T06:57:00.451Z,88.20
2017-03-08T06:57:58.964Z,88.20
2017-03-08T06:58:57.478Z,88.10
2017-03-08T06:59:56.034Z,88.30
2017-03-08T07:00:54.587Z,88.50
2017-03-08T07:01:53.180Z,88.40
2017-03-08T07:02:52.091Z,88.40
2017-03-08T07:03:50.711Z,88.20
2017-03-08T07:04:49.371Z,88.10
2017-03-08T07:05:48.355Z,88.20
2017-03-08T07:06:46.955Z,88.20
2017-03-08T07:07:45.623Z,87.70
2017-03-08T07:08:44.550Z,87.80
2017-03-08T07:09:43.942Z,88.10
2017-03-08T07:10:42.554Z,88.10
2017-03-08T07:11:41.169Z,88.10
2017-03-08T07:12:39.768Z,88.20
2017-03-08T07:13:38.427Z,88.00
2017-03-08T07:14:37.340Z,87.90
2017-03-08T07:15:35.997Z,87.50
2017-03-08T07:16:34.576Z,88.00
2017-03-08T07:17:33.176Z,88.10
2017-03-08T07:18:31.783Z,87.90
2017-03-08T07:19:30.416Z,88.00
2017-03-08T07:20:29.772Z,87.90
2017-03-08T07:21:28.373Z,87.90
2017-03-08T07:22:27.029Z,87.90
2017-03-08T07:23:25.651Z,87.80
2017-03-08T07:24:24.252Z,87.60
2017-03-08T07:25:22.888Z,87.60
2017-03-08T07:26:21.833Z,87.50
2017-03-08T07:27:20.474Z,87.50
2017-03-08T07:28:19.123Z,87.50
2017-03-08T07:29:17.741Z,87.30
2017-03-08T07:30:16.360Z,87.80
2017-03-08T07:31:14.942Z,87.80
2017-03-08T07:32:13.979Z,87.70
2017-03-08T07:33:12.592Z,87.80
2017-03-08T07:34:11.227Z,87.90
2017-03-08T07:35:09.852Z,88.00
2017-03-08T07:36:08.427Z,88.00
2017-03-08T07:37:07.439Z,87.60
2017-03-08T07:38:06.440Z,87.70
2017-03-08T07:39:07.466Z,87.70
2017-03-08T07:40:06.342Z,87.60
2017-03-08T07:41:05.331Z,87.90
2017-03-08T07:42:04.190Z,87.60
2017-03-08T07:43:04.322Z,87.50
2017-03-08T07:44:05.322Z,87.70
2017-03-08T07:45:05.164Z,87.60
2017-03-08T07:46:03.950Z,87.90
2017-03-08T07:47:02.716Z,87.80
2017-03-08T07:48:01.333Z,87.70
2017-03-08T07:48:59.929Z,87.50
2017-03-08T07:49:58.940Z,87.20
2017-03-08T07:50:57.998Z,87.40
2017-03-08T07:51:57.301Z,87.50
2017-03-08T07:52:55.912Z,86.90
2017-03-08T07:53:54.485Z,87.10
2017-03-08T07:54:53.045Z,87.30
2017-03-08T07:55:51.938Z,87.20
2017-03-08T07:56:50.521Z,87.20
2017-03-08T07:57:49.122Z,87.70
2017-03-08T07:58:47.739Z,87.40
2017-03-08T07:59:47.305Z,87.10
2017-03-08T08:00:45.966Z,87.20
2017-03-08T08:01:44.992Z,86.90
2017-03-08T08:02:44.521Z,86.80
2017-03-08T08:03:43.120Z,87.00
2017-03-08T08:04:41.733Z,87.20
2017-03-08T08:05:40.588Z,86.80
2017-03-08T08:06:39.278Z,86.90
2017-03-08T08:07:38.175Z,86.80
2017-03-08T08:08:36.763Z,86.80
2017-03-08T08:09:35.366Z,86.40
2017-03-08T08:10:33.967Z,86.50
2017-03-08T08:11:32.623Z,86.70
2017-03-08T08:12:31.190Z,86.90
2017-03-08T08:13:30.231Z,86.80
2017-03-08T08:14:28.747Z,86.60
2017-03-08T08:15:27.650Z,86.40
2017-03-08T08:16:26.217Z,86.40
2017-03-08T08:17:24.736Z,86.50
2017-03-08T08:18:23.268Z,86.40
2017-03-08T08:19:22.167Z,86.20
2017-03-08T08:20:20.729Z,86.10
2017-03-08T08:21:19.348Z,86.30
2017-03-08T08:22:17.953Z,86.70
2017-03-08T08:23:16.606Z,86.70
2017-03-08T08:24:15.506Z,87.10
2017-03-08T08:25:14.315Z,87.10
2017-03-08T08:26:12.829Z,86.60
2017-03-08T08:27:12.371Z,86.30
2017-03-08T08:28:12.188Z,86.20
2017-03-08T08:29:10.725Z,86.10
2017-03-08T08:30:10.144Z,86.20
2017-03-08T08:31:09.033Z,86.20
2017-03-08T08:32:07.577Z,85.80
2017-03-08T08:33:11.795Z,85.30
2017-03-08T08:34:10.668Z,85.30
2017-03-08T08:35:09.176Z,85.40
2017-03-08T08:36:07.713Z,85.40
2017-03-08T08:37:06.509Z,85.10
2017-03-08T08:38:05.109Z,85.00
2017-03-08T08:39:04.252Z,84.60
2017-03-08T08:40:02.781Z,84.60
2017-03-08T08:41:01.275Z,84.10
2017-03-08T08:42:00.268Z,84.70
2017-03-08T08:42:59.092Z,84.70
2017-03-08T08:43:57.624Z,84.60
2017-03-08T08:44:56.156Z,84.50
2017-03-08T08:45:54.780Z,84.40
2017-03-08T08:46:53.336Z,84.30
2017-03-08T08:47:51.868Z,84.50
2017-03-08T08:48:50.845Z,85.20
2017-03-08T08:49:49.380Z,84.50
2017-03-08T08:50:47.956Z,85.00
2017-03-08T08:51:46.618Z,84.40
2017-03-08T08:52:45.139Z,84.20
2017-03-08T08:53:43.638Z,84.40
2017-03-08T08:54:42.865Z,85.20
2017-03-08T08:55:41.414Z,85.20
2017-03-08T08:56:40.445Z,84.70
2017-03-08T08:57:39.012Z,84.70
2017-03-08T08:58:37.537Z,84.50
2017-03-08T08:59:36.710Z,84.40
2017-03-08T09:00:36.056Z,84.60
2017-03-08T09:01:34.634Z,84.60
2017-03-08T09:02:33.198Z,84.50
2017-03-08T09:03:31.840Z,84.60
2017-03-08T09:04:30.756Z,84.80
2017-03-08T09:05:29.907Z,84.80
2017-03-08T09:06:29.145Z,84.80
2017-03-08T09:07:27.664Z,84.80
2017-03-08T09:08:26.233Z,84.80
2017-03-08T09:09:25.174Z,84.70
2017-03-08T09:10:23.691Z,84.70
2017-03-08T09:11:22.587Z,84.50
2017-03-08T09:12:21.402Z,84.50
2017-03-08T09:13:19.960Z,84.20
2017-03-08T09:14:18.446Z,84.20
2017-03-08T09:15:16.998Z,84.30
2017-03-08T09:16:16.110Z,84.00
2017-03-08T09:17:14.633Z,83.70
2017-03-08T09:18:13.563Z,83.80
2017-03-08T09:19:12.091Z,83.70
2017-03-08T09:20:10.644Z,83.50
2017-03-08T09:21:09.637Z,83.20
2017-03-08T09:22:08.600Z,83.20
2017-03-08T09:23:07.118Z,83.20
2017-03-08T09:24:06.286Z,83.50
2017-03-08T09:25:07.118Z,82.90
2017-03-08T09:26:07.899Z,83.20
2017-03-08T09:27:10.791Z,82.80
2017-03-08T09:28:10.599Z,82.70
2017-03-08T09:29:10.781Z,82.70
2017-03-08T09:30:11.650Z,82.60
2017-03-08T09:31:12.156Z,82.60
2017-03-08T09:32:11.109Z,82.20
2017-03-08T09:33:09.650Z,82.20
2017-03-08T09:34:08.604Z,82.10
2017-03-08T09:35:10.040Z,81.90
2017-03-08T09:36:08.976Z,81.70
2017-03-08T09:37:07.551Z,81.70
2017-03-08T09:38:06.078Z,81.80
2017-03-08T09:39:05.576Z,82.10
2017-03-08T09:40:04.445Z,81.80
2017-03-08T09:41:09.473Z,81.80
2017-03-08T09:42:08.133Z,81.80
2017-03-08T09:43:06.661Z,81.60
2017-03-08T09:44:05.171Z,81.70
2017-03-08T09:45:04.085Z,81.40
2017-03-08T09:46:02.722Z,81.40
2017-03-08T09:47:01.975Z,81.30
2017-03-08T09:48:00.533Z,81.30
2017-03-08T09:48:59.128Z,81.30
2017-03-08T09:49:58.559Z,80.90
2017-03-08T09:50:57.484Z,81.50
2017-03-08T09:51:56.032Z,81.50
2017-03-08T09:52:54.852Z,81.50
2017-03-08T09:53:53.629Z,81.10
2017-03-08T09:54:53.666Z,81.20
2017-03-08T09:55:52.186Z,81.30
2017-03-08T09:56:50.742Z,81.30
2017-03-08T09:57:49.330Z,81.40
2017-03-08T09:58:48.131Z,81.70
2017-03-08T09:59:46.682Z,81.10
2017-03-08T10:00:45.348Z,81.50
2017-03-08T10:01:43.972Z,81.60
2017-03-08T10:02:42.520Z,81.80
2017-03-08T10:03:41.073Z,81.50
2017-03-08T10:04:39.887Z,82.00
2017-03-08T10:05:43.309Z,81.70
2017-03-08T10:06:41.886Z,81.70
2017-03-08T10:07:40.845Z,81.80
2017-03-08T10:08:39.364Z,81.50
2017-03-08T10:09:39.714Z,81.10
2017-03-08T10:10:38.296Z,81.20
2017-03-08T10:11:36.826Z,81.10
2017-03-08T10:12:35.402Z,81.10
2017-03-08T10:13:33.900Z,80.90
2017-03-08T10:14:32.566Z,81.20
2017-03-08T10:15:31.444Z,81.10
2017-03-08T10:16:29.972Z,80.80
2017-03-08T10:17:28.876Z,81.00
2017-03-08T10:18:28.465Z,81.00
2017-03-08T10:19:27.055Z,80.80
2017-03-08T10:20:35.085Z,80.70
2017-03-08T10:21:34.385Z,80.40
2017-03-08T10:22:33.323Z,79.90
2017-03-08T10:23:31.843Z,79.90
2017-03-08T10:24:30.404Z,80.30
2017-03-08T10:25:29.190Z,80.80
2017-03-08T10:26:28.744Z,79.90
2017-03-08T10:27:27.283Z,79.70
2017-03-08T10:28:26.645Z,79.50
2017-03-08T10:29:25.663Z,79.60
2017-03-08T10:30:24.192Z,79.70
2017-03-08T10:31:22.705Z,79.90
2017-03-08T10:32:21.621Z,79.40
2017-03-08T10:33:20.148Z,79.50
2017-03-08T10:34:18.681Z,79.70
2017-03-08T10:35:17.215Z,79.30
2017-03-08T10:36:15.752Z,79.30
2017-03-08T10:37:14.273Z,78.90
2017-03-08T10:38:13.068Z,79.60
2017-03-08T10:39:11.976Z,79.00
2017-03-08T10:40:10.547Z,78.90
2017-03-08T10:41:09.052Z,79.30
2017-03-08T10:42:07.586Z,78.90
2017-03-08T10:43:06.112Z,78.90
2017-03-08T10:44:05.013Z,78.40
2017-03-08T10:45:03.593Z,78.60
2017-03-08T10:46:04.794Z,78.80
2017-03-08T10:47:04.428Z,78.10
2017-03-08T10:48:02.952Z,78.30
2017-03-08T10:49:02.134Z,78.10
2017-03-08T10:50:01.780Z,78.10
2017-03-08T10:51:00.880Z,77.80
2017-03-08T10:51:59.441Z,78.00
2017-03-08T10:53:05.041Z,78.00
2017-03-08T10:54:03.668Z,77.70
2017-03-08T10:55:02.432Z,77.40
2017-03-08T10:56:02.260Z,77.70
2017-03-08T10:57:00.763Z,77.20
2017-03-08T10:57:59.307Z,77.40
2017-03-08T10:58:58.211Z,77.90
2017-03-08T10:59:56.736Z,77.90
2017-03-08T11:00:55.576Z,76.70
2017-03-08T11:01:54.117Z,76.90
2017-03-08T11:02:52.719Z,77.50
2017-03-08T11:03:51.229Z,77.60
2017-03-08T11:04:49.889Z,77.50
2017-03-08T11:05:48.622Z,78.00
2017-03-08T11:06:47.894Z,77.10
2017-03-08T11:07:46.603Z,77.10
2017-03-08T11:08:45.137Z,77.00
2017-03-08T11:09:44.075Z,76.80
2017-03-08T11:10:42.745Z,76.50
2017-03-08T11:11:41.859Z,76.70
2017-03-08T11:12:41.002Z,76.90
2017-03-08T11:13:39.550Z,76.80
2017-03-08T11:14:38.462Z,76.40
2017-03-08T11:15:37.082Z,76.40
2017-03-08T11:16:37.147Z,75.50
2017-03-08T11:17:35.839Z,74.50
2017-03-08T11:18:34.735Z,75.10
2017-03-08T11:19:33.575Z,75.40
2017-03-08T11:20:32.167Z,75.20
2017-03-08T11:21:32.541Z,74.50
2017-03-08T11:22:32.263Z,73.60
2017-03-08T11:23:30.996Z,73.60
2017-03-08T11:24:30.006Z,74.10
2017-03-08T11:25:30.586Z,73.30
2017-03-08T11:26:29.112Z,73.30
2017-03-08T11:27:27.764Z,74.00
2017-03-08T11:28:26.743Z,73.80
2017-03-08T11:29:25.674Z,73.50
2017-03-08T11:30:24.563Z,73.50
2017-03-08T11:31:23.147Z,74.10
2017-03-08T11:32:21.766Z,73.00
2017-03-08T11:33:20.666Z,73.60
2017-03-08T11:34:19.244Z,73.70
2017-03-08T11:35:17.880Z,73.00
2017-03-08T11:36:16.831Z,72.80
2017-03-08T11:37:15.416Z,73.50
2017-03-08T11:38:14.033Z,73.00
2017-03-08T11:39:12.618Z,72.70
2017-03-08T11:40:11.185Z,72.50
2017-03-08T11:41:09.933Z,72.50
2017-03-08T11:42:08.910Z,73.50
2017-03-08T11:43:07.605Z,73.10
2017-03-08T11:44:06.695Z,72.90
2017-03-08T11:45:05.320Z,72.90
2017-03-08T11:46:07.445Z,73.50
2017-03-08T11:47:06.097Z,74.20
2017-03-08T11:48:05.031Z,74.70
2017-03-08T11:49:03.557Z,74.10
2017-03-08T11:50:02.481Z,74.70
2017-03-08T11:51:00.986Z,74.70
2017-03-08T11:51:59.534Z,75.90
2017-03-08T11:52:58.118Z,76.50
2017-03-08T11:53:56.913Z,77.00
2017-03-08T11:54:55.423Z,77.80
2017-03-08T11:55:53.975Z,77.60
2017-03-08T11:56:52.472Z,78.00
2017-03-08T11:57:50.974Z,77.90
2017-03-08T11:58:50.284Z,76.50
2017-03-08T11:59:49.542Z,77.30
2017-03-08T12:00:48.132Z,77.30
2017-03-08T12:01:46.731Z,78.80
2017-03-08T12:02:45.669Z,79.60
2017-03-08T12:03:44.220Z,79.60
2017-03-08T12:04:42.891Z,79.30
2017-03-08T12:05:41.705Z,79.70
2017-03-08T12:06:40.215Z,79.60
2017-03-08T12:07:39.106Z,79.70
2017-03-08T12:08:37.610Z,79.70
2017-03-08T12:09:36.098Z,80.10
2017-03-08T12:10:34.615Z,80.10
2017-03-08T12:11:33.431Z,80.20
2017-03-08T12:12:31.926Z,80.40
2017-03-08T12:13:30.480Z,80.30
2017-03-08T12:14:29.161Z,80.50
2017-03-08T12:15:27.751Z,81.10
2017-03-08T12:16:26.291Z,81.70
2017-03-08T12:17:25.182Z,82.10
2017-03-08T12:18:23.674Z,82.30
2017-03-08T12:19:22.222Z,82.50
2017-03-08T12:20:20.718Z,82.80
2017-03-08T12:21:19.241Z,83.20
2017-03-08T12:22:17.778Z,83.20
2017-03-08T12:23:16.635Z,83.00
2017-03-08T12:24:15.163Z,83.70
2017-03-08T12:25:13.723Z,83.90
2017-03-08T12:26:12.258Z,84.70
2017-03-08T12:27:10.800Z,84.90
2017-03-08T12:28:09.331Z,84.60
2017-03-08T12:29:08.187Z,85.30
2017-03-08T12:30:06.722Z,85.80
2017-03-08T12:31:05.601Z,85.90
2017-03-08T12:32:04.177Z,85.40
2017-03-08T12:33:02.684Z,85.80
2017-03-08T12:34:01.235Z,86.20
2017-03-08T12:35:00.115Z,86.50
2017-03-08T12:35:58.648Z,86.30
2017-03-08T12:36:57.151Z,86.20